Rhonda Lamulle — WDC8441 — position and weather

sailwx.info

Track history (hours):
 
Tides and Currents Weather Stations Pressure Air Temp Water Temp Dewpoint Dewpoint Depression Visibility Wind Speed Wind Dir Waves Ship Positions

Rhonda Lamulle

Owner: Florida Marine Transporters, Inc., Mandeville, LA. More information available from US FCC via Universal Licensing System and Coast Guard Vessel Documentation Center.

Last reported at 2014-Nov-28 10:19 UTC. Time now 2014-Nov-29 07:30 UTC.
Position N 29°55' W 089°59'.

Length 27 m; draft 3 m.

Type: Towing. MMSI: 367087160.

Date/timePositionNaut miles runAvg speedWind from/ knotsBaromVisibWave heightAir tempDewpointWater temp
2014-Nov-28 10:19N 29°55' W 089°59'0 0.0
2014-Nov-28 09:23N 29°55' W 089°59'0 0.0
2014-Nov-28 08:31N 29°55' W 089°59'0 0.0
2014-Nov-28 07:32N 29°55' W 089°59'46 2.3
2014-Nov-27 11:33N 29°33' W 090°45'11 3.7
2014-Nov-27 08:33N 29°35' W 090°58'5 5.3
2014-Nov-27 07:32N 29°37' W 091°03'5 4.8
2014-Nov-27 06:33N 29°40' W 091°08'3 3.2
2014-Nov-27 05:33N 29°41' W 091°11'3 2.6
2014-Nov-27 04:33N 29°40' W 091°14'2 1.9
2014-Nov-27 03:33N 29°39' W 091°16'6 6.4
2014-Nov-27 02:33N 29°39' W 091°23'4 4.0
2014-Nov-27 01:33N 29°40' W 091°27'5 4.9
2014-Nov-27 00:33N 29°43' W 091°32'173 4.3
2014-Nov-25 08:28N 29°26' W 094°50'7 7.1
2014-Nov-25 07:33N 29°32' W 094°53'6 6.4
2014-Nov-25 06:33N 29°37' W 094°57'6 6.3
2014-Nov-25 05:33N 29°42' W 095°01'5 4.9
2014-Nov-25 04:33N 29°45' W 095°06'5 5.1
2014-Nov-25 03:32N 29°45' W 095°12'0 0.0
2014-Nov-24 23:18N 29°45' W 095°12'0 0.0
2014-Nov-24 22:33N 29°45' W 095°12'0 0.0
2014-Nov-24 21:33N 29°45' W 095°12'0 0.0
2014-Nov-24 20:31N 29°45' W 095°12'0 0.0
2014-Nov-24 19:32N 29°45' W 095°12'0 0.0
2014-Nov-24 18:30N 29°45' W 095°12'0 0.0
2014-Nov-24 17:33N 29°45' W 095°12'0 0.0
2014-Nov-24 16:28N 29°45' W 095°12'0 0.0
2014-Nov-24 15:33N 29°45' W 095°12'0 0.0
2014-Nov-24 14:33N 29°45' W 095°12'0 0.0
2014-Nov-24 13:33N 29°45' W 095°12'2 0.4
2014-Nov-24 07:32N 29°44' W 095°09'3 3.0
2014-Nov-24 06:33N 29°45' W 095°06'3 2.8
2014-Nov-24 05:29N 29°47' W 095°04'0 0.1
2014-Nov-24 04:31N 29°47' W 095°04'0 0.1
2014-Nov-24 03:07N 29°47' W 095°04'2 3.8
2014-Nov-24 02:32N 29°46' W 095°06'0 0.0
2014-Nov-24 01:31N 29°46' W 095°06'0 0.0
2014-Nov-24 00:33N 29°46' W 095°06'0 0.0
2014-Nov-23 23:33N 29°46' W 095°06'0 0.0
2014-Nov-23 22:33N 29°46' W 095°06'0 0.0
2014-Nov-23 21:33N 29°46' W 095°06'0 0.0
2014-Nov-23 20:33N 29°46' W 095°06'0 0.0
2014-Nov-23 19:33N 29°46' W 095°06'0 0.0
2014-Nov-23 18:33N 29°46' W 095°06'0 0.0
2014-Nov-23 17:33N 29°46' W 095°06'0 0.0
2014-Nov-23 16:33N 29°46' W 095°06'0 0.0
2014-Nov-23 15:34N 29°46' W 095°06'0 0.0
2014-Nov-23 14:33N 29°46' W 095°06'0 0.0
2014-Nov-23 13:33N 29°46' W 095°06'0 0.0
2014-Nov-23 12:27N 29°46' W 095°06'0 0.0
2014-Nov-23 07:33N 29°46' W 095°06'0 0.0
2014-Nov-23 06:32N 29°46' W 095°06'0 0.0
2014-Nov-23 04:29N 29°46' W 095°06'0 0.0
2014-Nov-22 23:11N 29°46' W 095°06'0 0.0
2014-Nov-22 22:33N 29°46' W 095°06'0 0.0
2014-Nov-22 21:33N 29°46' W 095°06'0 0.0
2014-Nov-22 20:30N 29°46' W 095°06'0 0.0
2014-Nov-22 19:33N 29°46' W 095°06'0 0.0
2014-Nov-22 18:33N 29°46' W 095°06'1 1.2
2014-Nov-22 17:33N 29°46' W 095°05'0 0.2
2014-Nov-22 16:30N 29°46' W 095°05'0 0.0
2014-Nov-22 15:33N 29°46' W 095°05'0 0.0
2014-Nov-22 14:32N 29°46' W 095°05'2 2.3
2014-Nov-22 13:33N 29°44' W 095°03'6 5.9
2014-Nov-22 12:33N 29°40' W 094°59'7 7.2
2014-Nov-22 11:33N 29°34' W 094°55'173 3.6
2014-Nov-20 11:33N 29°45' W 091°36'4 4.4
2014-Nov-20 10:33N 29°43' W 091°32'4 4.0
2014-Nov-20 09:33N 29°41' W 091°28'4 3.6
2014-Nov-20 08:33N 29°39' W 091°24'4 3.6
2014-Nov-20 07:33N 29°38' W 091°20'4 4.2
2014-Nov-20 06:33N 29°39' W 091°16'4 4.5
2014-Nov-20 05:33N 29°43' W 091°13'4 4.2
2014-Nov-20 04:33N 29°47' W 091°11'5 4.9
2014-Nov-20 03:33N 29°51' W 091°12'5 4.9
2014-Nov-20 02:29N 29°56' W 091°15'6 4.8
2014-Nov-20 01:16N 30°02' W 091°15'  
Track history (hours):
 
Tides and Currents Weather Stations Pressure Air Temp Water Temp Dewpoint Dewpoint Depression Visibility Wind Speed Wind Dir Waves Ship Positions

Rhonda Lamulle

Owner: Florida Marine Transporters, Inc., Mandeville, LA. More information available from US FCC via Universal Licensing System and Coast Guard Vessel Documentation Center.

Last reported at 2014-Nov-28 10:19 UTC. Time now 2014-Nov-29 07:30 UTC.
Position N 29°55' W 089°59'.

Length 27 m; draft 3 m.

Type: Towing. MMSI: 367087160.

Date/timePositionNaut miles runAvg speedWind from/ knotsBaromVisibWave heightAir tempDewpointWater temp
2014-Nov-28 10:19N 29°55' W 089°59'0 0.0
2014-Nov-28 09:23N 29°55' W 089°59'0 0.0
2014-Nov-28 08:31N 29°55' W 089°59'0 0.0
2014-Nov-28 07:32N 29°55' W 089°59'46 2.3
2014-Nov-27 11:33N 29°33' W 090°45'11 3.7
2014-Nov-27 08:33N 29°35' W 090°58'5 5.3
2014-Nov-27 07:32N 29°37' W 091°03'5 4.8
2014-Nov-27 06:33N 29°40' W 091°08'3 3.2
2014-Nov-27 05:33N 29°41' W 091°11'3 2.6
2014-Nov-27 04:33N 29°40' W 091°14'2 1.9
2014-Nov-27 03:33N 29°39' W 091°16'6 6.4
2014-Nov-27 02:33N 29°39' W 091°23'4 4.0
2014-Nov-27 01:33N 29°40' W 091°27'5 4.9
2014-Nov-27 00:33N 29°43' W 091°32'173 4.3
2014-Nov-25 08:28N 29°26' W 094°50'7 7.1
2014-Nov-25 07:33N 29°32' W 094°53'6 6.4
2014-Nov-25 06:33N 29°37' W 094°57'6 6.3
2014-Nov-25 05:33N 29°42' W 095°01'5 4.9
2014-Nov-25 04:33N 29°45' W 095°06'5 5.1
2014-Nov-25 03:32N 29°45' W 095°12'0 0.0
2014-Nov-24 23:18N 29°45' W 095°12'0 0.0
2014-Nov-24 22:33N 29°45' W 095°12'0 0.0
2014-Nov-24 21:33N 29°45' W 095°12'0 0.0
2014-Nov-24 20:31N 29°45' W 095°12'0 0.0
2014-Nov-24 19:32N 29°45' W 095°12'0 0.0
2014-Nov-24 18:30N 29°45' W 095°12'0 0.0
2014-Nov-24 17:33N 29°45' W 095°12'0 0.0
2014-Nov-24 16:28N 29°45' W 095°12'0 0.0
2014-Nov-24 15:33N 29°45' W 095°12'0 0.0
2014-Nov-24 14:33N 29°45' W 095°12'0 0.0
2014-Nov-24 13:33N 29°45' W 095°12'2 0.4
2014-Nov-24 07:32N 29°44' W 095°09'3 3.0
2014-Nov-24 06:33N 29°45' W 095°06'3 2.8
2014-Nov-24 05:29N 29°47' W 095°04'0 0.1
2014-Nov-24 04:31N 29°47' W 095°04'0 0.1
2014-Nov-24 03:07N 29°47' W 095°04'2 3.8
2014-Nov-24 02:32N 29°46' W 095°06'0 0.0
2014-Nov-24 01:31N 29°46' W 095°06'0 0.0
2014-Nov-24 00:33N 29°46' W 095°06'0 0.0
2014-Nov-23 23:33N 29°46' W 095°06'0 0.0
2014-Nov-23 22:33N 29°46' W 095°06'0 0.0
2014-Nov-23 21:33N 29°46' W 095°06'0 0.0
2014-Nov-23 20:33N 29°46' W 095°06'0 0.0
2014-Nov-23 19:33N 29°46' W 095°06'0 0.0
2014-Nov-23 18:33N 29°46' W 095°06'0 0.0
2014-Nov-23 17:33N 29°46' W 095°06'0 0.0
2014-Nov-23 16:33N 29°46' W 095°06'0 0.0
2014-Nov-23 15:34N 29°46' W 095°06'0 0.0
2014-Nov-23 14:33N 29°46' W 095°06'0 0.0
2014-Nov-23 13:33N 29°46' W 095°06'0 0.0
2014-Nov-23 12:27N 29°46' W 095°06'0 0.0
2014-Nov-23 07:33N 29°46' W 095°06'0 0.0
2014-Nov-23 06:32N 29°46' W 095°06'0 0.0
2014-Nov-23 04:29N 29°46' W 095°06'0 0.0
2014-Nov-22 23:11N 29°46' W 095°06'0 0.0
2014-Nov-22 22:33N 29°46' W 095°06'0 0.0
2014-Nov-22 21:33N 29°46' W 095°06'0 0.0
2014-Nov-22 20:30N 29°46' W 095°06'0 0.0
2014-Nov-22 19:33N 29°46' W 095°06'0 0.0
2014-Nov-22 18:33N 29°46' W 095°06'1 1.2
2014-Nov-22 17:33N 29°46' W 095°05'0 0.2
2014-Nov-22 16:30N 29°46' W 095°05'0 0.0
2014-Nov-22 15:33N 29°46' W 095°05'0 0.0
2014-Nov-22 14:32N 29°46' W 095°05'2 2.3
2014-Nov-22 13:33N 29°44' W 095°03'6 5.9
2014-Nov-22 12:33N 29°40' W 094°59'7 7.2
2014-Nov-22 11:33N 29°34' W 094°55'173 3.6
2014-Nov-20 11:33N 29°45' W 091°36'4 4.4
2014-Nov-20 10:33N 29°43' W 091°32'4 4.0
2014-Nov-20 09:33N 29°41' W 091°28'4 3.6
2014-Nov-20 08:33N 29°39' W 091°24'4 3.6
2014-Nov-20 07:33N 29°38' W 091°20'4 4.2
2014-Nov-20 06:33N 29°39' W 091°16'4 4.5
2014-Nov-20 05:33N 29°43' W 091°13'4 4.2
2014-Nov-20 04:33N 29°47' W 091°11'5 4.9
2014-Nov-20 03:33N 29°51' W 091°12'5 4.9
2014-Nov-20 02:29N 29°56' W 091°15'6 4.8
2014-Nov-20 01:16N 30°02' W 091°15'  

Dump ship's entire track history